Time;durP1;ratioP1;P1;durP2;ratioP2;P2;SDS_P1;SDS_P2;PMS_P1;PMS_P2;Temp;Humidity;BMP_temperature;BMP_pressure;BME280_temperature;BME280_humidity;BME280_pressure;Samples;Min_cycle;Max_cycle;Signal;HPM_P1;HPM_P2
2022/06/04 00:02:15;;;;;;;12.13;10.27;;;;;;;22.76;nan;95474.69;5075847;28;20714;-67
2022/06/04 00:04:42;;;;;;;10.75;9.82;;;;;;;22.39;nan;95477.41;5075862;28;20213;-67
2022/06/04 00:07:09;;;;;;;10.77;9.85;;;;;;;22.06;nan;95479.84;5075825;28;20208;-67
2022/06/04 00:09:36;;;;;;;16.00;10.63;;;;;;;21.91;nan;95479.16;5078932;28;20209;-69
2022/06/04 00:17:33;;;;;;;11.13;9.38;;;;;;;22.05;nan;95483.38;5080118;28;21418;-68
2022/06/04 00:20:00;;;;;;;11.23;9.88;;;;;;;22.11;nan;95475.19;5079968;28;20205;-66
2022/06/04 00:22:26;;;;;;;12.82;9.77;;;;;;;22.12;nan;95476.81;5079279;28;20198;-67
2022/06/04 00:24:53;;;;;;;10.73;9.75;;;;;;;21.99;nan;95476.03;5079624;28;20229;-66
2022/06/04 00:27:22;;;;;;;10.48;9.45;;;;;;;22.16;nan;95473.09;5079236;28;20623;-67
2022/06/04 00:29:50;;;;;;;11.88;9.63;;;;;;;21.98;nan;95480.38;5079873;28;20594;-68
2022/06/04 00:32:19;;;;;;;12.10;9.80;;;;;;;22.19;nan;95482.41;5079327;28;20212;-67
2022/06/04 00:34:46;;;;;;;10.60;9.85;;;;;;;22.16;nan;95482.63;5079307;28;20209;-67
2022/06/04 00:37:12;;;;;;;11.45;10.07;;;;;;;22.24;nan;95475.13;5078712;28;20324;-68
2022/06/04 00:39:40;;;;;;;10.48;9.60;;;;;;;22.01;nan;95469.84;5079861;28;20193;-67
2022/06/04 00:42:10;;;;;;;11.95;10.35;;;;;;;22.01;nan;95475.03;5079047;28;21434;-67
2022/06/04 00:45:13;;;;;;;11.55;9.82;;;;;;;22.13;nan;95462.94;5079306;28;20294;-66
2022/06/04 00:47:42;;;;;;;11.38;10.32;;;;;;;22.06;nan;95456.56;5078180;28;20292;-67
2022/06/04 00:50:09;;;;;;;11.60;10.18;;;;;;;22.02;nan;95450.78;5078076;28;20197;-67
2022/06/04 00:52:37;;;;;;;10.52;9.55;;;;;;;21.95;nan;95453.91;5077823;28;20305;-68
2022/06/04 00:55:07;;;;;;;11.27;10.20;;;;;;;21.91;nan;95447.28;5078249;28;20618;-67
2022/06/04 00:58:11;;;;;;;11.43;10.18;;;;;;;22.13;nan;95447.41;5078409;28;20308;-66
2022/06/04 01:00:43;;;;;;;10.20;9.23;;;;;;;22.36;nan;95446.56;5078864;28;20294;-67
2022/06/04 01:03:21;;;;;;;10.48;9.55;;;;;;;22.58;nan;95443.19;5078463;28;20205;-67
2022/06/04 01:06:01;;;;;;;13.85;11.38;;;;;;;22.72;nan;95440.41;5078204;28;20201;-67
2022/06/04 01:08:50;;;;;;;12.40;9.70;;;;;;;22.73;nan;95428.28;5078397;28;21104;-69
2022/06/04 01:11:30;;;;;;;11.75;10.55;;;;;;;22.48;nan;95426.69;5078736;28;20906;-67
2022/06/04 01:14:10;;;;;;;11.23;10.15;;;;;;;22.30;nan;95428.88;5077777;28;20201;-68
2022/06/04 01:16:46;;;;;;;11.70;10.02;;;;;;;22.65;nan;95436.63;5077886;28;20232;-67
2022/06/04 01:19:34;;;;;;;10.55;9.43;;;;;;;22.77;nan;95432.25;5077520;28;20193;-68
2022/06/04 01:22:17;;;;;;;10.63;9.45;;;;;;;22.42;nan;95447.88;5077084;28;20201;-70
2022/06/04 01:25:01;;;;;;;12.85;10.75;;;;;;;21.62;nan;95437.25;5076612;28;20253;-68
2022/06/04 01:27:36;;;;;;;15.85;11.10;;;;;;;21.11;nan;95430.53;5076989;28;20669;-69
2022/06/04 01:30:08;;;;;;;14.95;10.38;;;;;;;21.12;nan;95421.84;5078163;28;20201;-67
2022/06/04 01:32:41;;;;;;;11.10;10.05;;;;;;;20.99;nan;95421.91;5077987;28;20209;-67
2022/06/04 01:35:16;;;;;;;12.82;10.70;;;;;;;20.78;nan;95416.44;5077773;28;20205;-66
2022/06/04 01:37:50;;;;;;;10.68;9.88;;;;;;;20.76;nan;95425.22;5076232;28;20248;-67
2022/06/04 01:43:18;;;;;;;10.88;9.88;;;;;;;21.55;nan;95424.88;5067904;28;20209;-67
2022/06/04 01:45:47;;;;;;;12.20;11.15;;;;;;;21.55;nan;95415.34;5077692;28;20278;-69
2022/06/04 01:48:17;;;;;;;13.45;12.20;;;;;;;21.31;nan;95427.44;5077585;28;20700;-67
2022/06/04 01:50:49;;;;;;;15.77;10.57;;;;;;;21.36;nan;95430.50;5077263;28;20251;-69
2022/06/04 01:53:19;;;;;;;12.27;11.02;;;;;;;21.32;nan;95427.31;5077528;28;20206;-67
2022/06/04 01:55:51;;;;;;;11.85;10.63;;;;;;;21.57;nan;95434.16;5077405;28;20802;-69
2022/06/04 01:58:23;;;;;;;12.38;11.15;;;;;;;21.96;nan;95435.69;5077551;28;20206;-69
2022/06/04 02:00:56;;;;;;;11.88;10.38;;;;;;;22.12;nan;95440.59;5077758;28;20206;-66
2022/06/04 02:03:30;;;;;;;15.23;11.70;;;;;;;22.06;nan;95456.56;5077372;28;20198;-66
2022/06/04 02:06:01;;;;;;;13.25;10.68;;;;;;;21.75;nan;95467.44;5077361;28;20603;-68
2022/06/04 02:08:32;;;;;;;13.25;11.98;;;;;;;21.92;nan;95472.22;5076710;28;20190;-67
2022/06/04 02:11:04;;;;;;;11.82;10.60;;;;;;;22.09;nan;95461.50;5077928;28;20206;-67
2022/06/04 02:13:34;;;;;;;11.98;10.73;;;;;;;21.63;nan;95466.53;5077026;28;20202;-67
2022/06/04 02:16:06;;;;;;;14.88;10.65;;;;;;;21.19;nan;95467.03;5077633;28;20229;-66
2022/06/04 02:18:34;;;;;;;11.15;10.07;;;;;;;20.71;nan;95472.03;5076872;28;20685;-67
2022/06/04 02:21:01;;;;;;;11.88;10.88;;;;;;;20.34;nan;95482.16;5077428;28;21361;-67
2022/06/04 02:23:29;;;;;;;13.75;10.52;;;;;;;20.50;nan;95483.78;5077084;28;20202;-67
2022/06/04 02:25:56;;;;;;;10.38;9.57;;;;;;;20.89;nan;95478.53;5077405;28;20681;-66
2022/06/04 02:28:24;;;;;;;13.70;10.63;;;;;;;20.68;nan;95490.28;5077279;28;20205;-66
2022/06/04 02:30:57;;;;;;;11.05;9.88;;;;;;;20.75;nan;95486.38;5077453;28;20662;-67
2022/06/04 02:33:36;;;;;;;14.85;11.65;;;;;;;20.80;nan;95488.63;5076434;28;20198;-66
2022/06/04 02:36:07;;;;;;;15.30;10.60;;;;;;;20.46;nan;95484.91;5077521;28;20800;-67
2022/06/04 02:38:43;;;;;;;15.75;11.32;;;;;;;20.26;nan;95486.16;5076937;28;20209;-66
2022/06/04 02:41:16;;;;;;;18.65;11.63;;;;;;;19.89;nan;95480.78;5076967;28;20258;-69
2022/06/04 02:43:47;;;;;;;14.15;12.05;;;;;;;19.57;nan;95487.94;5075870;28;20189;-66
2022/06/04 02:46:23;;;;;;;14.20;12.32;;;;;;;19.55;nan;95476.91;5077416;28;20201;-66
2022/06/04 02:48:59;;;;;;;13.80;12.23;;;;;;;19.74;nan;95481.75;5076961;28;20677;-66
2022/06/04 02:51:31;;;;;;;15.77;10.65;;;;;;;20.35;nan;95482.97;5077587;28;20197;-66
2022/06/04 02:53:58;;;;;;;13.40;11.60;;;;;;;20.56;nan;95480.75;5075614;28;20228;-66
2022/06/04 02:56:29;;;;;;;22.42;12.23;;;;;;;20.49;nan;95476.97;5074967;28;20226;-66
2022/06/04 02:59:02;;;;;;;13.75;11.73;;;;;;;20.45;nan;95468.59;5075026;28;20743;-66
2022/06/04 03:01:33;;;;;;;16.25;11.60;;;;;;;20.66;nan;95471.50;5075209;28;20284;-67
2022/06/04 03:04:01;;;;;;;14.00;12.63;;;;;;;20.80;nan;95463.63;5074849;28;20572;-67
2022/06/04 03:06:32;;;;;;;15.80;12.23;;;;;;;20.32;nan;95452.19;5075087;28;20594;-66
2022/06/04 03:09:00;;;;;;;13.73;12.48;;;;;;;19.77;nan;95457.53;5074645;28;20209;-68
2022/06/04 03:11:27;;;;;;;15.05;13.00;;;;;;;19.95;nan;95453.78;5075377;28;20205;-69
2022/06/04 03:13:54;;;;;;;18.30;14.35;;;;;;;19.97;nan;95462.25;5074638;28;20289;-67
2022/06/04 03:16:21;;;;;;;15.25;12.98;;;;;;;20.23;nan;95458.81;5076234;28;20712;-67
2022/06/04 03:18:49;;;;;;;15.43;13.85;;;;;;;20.20;nan;95448.69;5075515;28;20210;-68
2022/06/04 03:21:16;;;;;;;14.57;13.07;;;;;;;20.19;nan;95454.75;5076661;28;21645;-67
2022/06/04 03:23:43;;;;;;;15.38;13.68;;;;;;;20.00;nan;95446.56;5076478;28;20232;-67
2022/06/04 03:26:10;;;;;;;16.65;13.27;;;;;;;20.43;nan;95454.94;5076492;28;20233;-67
2022/06/04 03:28:36;;;;;;;15.57;13.73;;;;;;;21.27;nan;95441.53;5076253;28;20577;-68
2022/06/04 03:31:03;;;;;;;13.02;11.73;;;;;;;22.70;nan;95442.28;5076930;28;20244;-67
2022/06/04 03:33:30;;;;;;;11.32;10.32;;;;;;;24.11;nan;95446.88;5076223;28;20216;-69
2022/06/04 03:35:58;;;;;;;15.07;10.90;;;;;;;25.59;nan;95454.31;5076438;28;20206;-66
2022/06/04 03:38:25;;;;;;;10.02;9.30;;;;;;;26.63;nan;95448.53;5076006;28;20217;-67
2022/06/04 03:40:52;;;;;;;16.05;8.95;;;;;;;27.29;nan;95448.50;5076772;28;20209;-67
2022/06/04 03:43:19;;;;;;;21.67;10.63;;;;;;;27.10;nan;95433.75;5077454;28;20262;-67
2022/06/04 03:45:46;;;;;;;11.98;10.18;;;;;;;26.53;nan;95439.91;5083114;28;20201;-69
2022/06/04 03:48:13;;;;;;;16.58;11.27;;;;;;;25.67;nan;95445.88;5082515;28;20229;-68
2022/06/04 03:50:40;;;;;;;18.00;10.40;;;;;;;25.39;nan;95444.81;5082968;28;20787;-69
2022/06/04 03:53:08;;;;;;;12.30;10.48;;;;;;;26.14;nan;95459.09;5082250;28;20197;-67
2022/06/04 03:55:35;;;;;;;17.30;9.88;;;;;;;26.89;nan;95435.72;5083102;28;20201;-67
2022/06/04 03:58:02;;;;;;;11.38;9.82;;;;;;;27.43;nan;95434.16;5082284;28;20735;-67
2022/06/04 04:00:31;;;;;;;11.05;8.95;;;;;;;27.67;nan;95447.53;5082660;28;20198;-67
2022/06/04 04:03:00;;;;;;;10.73;8.68;;;;;;;27.59;nan;95455.25;5082182;28;20567;-67
2022/06/04 04:05:29;;;;;;;16.02;9.60;;;;;;;27.60;nan;95456.09;5082815;28;20201;-67
2022/06/04 04:07:57;;;;;;;14.90;10.15;;;;;;;27.84;nan;95460.75;5082531;28;20212;-68
2022/06/04 04:10:26;;;;;;;13.10;10.00;;;;;;;27.80;nan;95457.59;5083126;28;20197;-67
2022/06/04 04:12:53;;;;;;;11.10;10.10;;;;;;;27.70;nan;95462.91;5082677;28;20208;-70
2022/06/04 04:15:20;;;;;;;11.98;9.35;;;;;;;27.06;nan;95471.53;5082229;28;20196;-67
2022/06/04 04:17:48;;;;;;;10.65;9.57;;;;;;;26.67;nan;95468.16;5082738;28;20240;-67
2022/06/04 04:20:17;;;;;;;10.40;9.30;;;;;;;26.39;nan;95467.22;5082937;28;20251;-67
2022/06/04 04:22:45;;;;;;;11.48;9.35;;;;;;;26.21;nan;95468.84;5082583;28;20201;-67
2022/06/04 04:25:13;;;;;;;11.00;9.90;;;;;;;26.22;nan;95478.31;5082796;28;21103;-68
2022/06/04 04:27:42;;;;;;;12.40;9.55;;;;;;;26.09;nan;95468.13;5082213;28;20209;-67
2022/06/04 04:30:11;;;;;;;12.32;10.23;;;;;;;26.10;nan;95466.34;5082932;28;20198;-67
2022/06/04 04:32:38;;;;;;;16.95;10.38;;;;;;;26.34;nan;95492.03;5082295;28;20247;-67
2022/06/04 04:35:08;;;;;;;10.95;9.30;;;;;;;26.41;nan;95499.19;5082952;28;20193;-68
2022/06/04 04:37:35;;;;;;;14.05;10.45;;;;;;;26.47;nan;95502.19;5082568;28;20272;-68
2022/06/04 04:40:02;;;;;;;10.80;9.80;;;;;;;26.57;nan;95489.97;5082805;28;20205;-69
2022/06/04 04:42:29;;;;;;;11.13;10.10;;;;;;;26.70;nan;95503.56;5082480;28;20221;-66
2022/06/04 04:44:57;;;;;;;14.77;11.40;;;;;;;26.82;nan;95504.22;5082474;28;20201;-67
2022/06/04 04:47:23;;;;;;;12.48;10.73;;;;;;;26.95;nan;95513.44;5080442;28;20559;-68
2022/06/04 04:49:50;;;;;;;13.55;11.50;;;;;;;27.15;nan;95509.00;5082959;28;20202;-67
2022/06/04 04:52:17;;;;;;;12.15;10.98;;;;;;;27.46;nan;95509.59;5082301;28;20231;-67
2022/06/04 04:54:44;;;;;;;14.95;12.15;;;;;;;27.47;nan;95507.78;5080977;28;20259;-69
2022/06/04 04:57:11;;;;;;;12.75;10.73;;;;;;;27.33;nan;95519.50;5077951;28;20252;-70
2022/06/04 04:59:38;;;;;;;24.83;13.93;;;;;;;27.35;nan;95520.19;5079230;28;20594;-67
2022/06/04 05:02:07;;;;;;;19.65;17.13;;;;;;;27.41;nan;95512.63;5079202;28;20209;-68
2022/06/04 05:04:35;;;;;;;15.57;11.90;;;;;;;27.39;nan;95509.31;5079388;28;20225;-67
2022/06/04 05:07:02;;;;;;;13.85;11.23;;;;;;;27.15;nan;95513.38;5079437;28;20194;-70
2022/06/04 05:09:29;;;;;;;12.82;11.45;;;;;;;26.55;nan;95515.34;5079537;28;20632;-67
2022/06/04 05:11:55;;;;;;;12.68;11.48;;;;;;;26.49;nan;95511.50;5078944;28;20204;-68
2022/06/04 05:14:22;;;;;;;13.02;11.80;;;;;;;26.49;nan;95511.50;5078917;28;20778;-67
2022/06/04 05:16:49;;;;;;;14.68;11.43;;;;;;;28.17;nan;95512.38;5078641;28;20209;-70
2022/06/04 05:19:17;;;;;;;13.52;11.77;;;;;;;29.59;nan;95512.22;5079267;28;20753;-70
2022/06/04 05:21:46;;;;;;;11.23;10.05;;;;;;;30.72;nan;95521.38;5079267;28;20201;-68
2022/06/04 05:24:17;;;;;;;14.35;10.07;;;;;;;31.48;nan;95513.09;5078826;28;20206;-67
2022/06/04 05:26:45;;;;;;;14.13;11.13;;;;;;;31.93;nan;95509.00;5079063;28;20202;-70
2022/06/04 05:29:12;;;;;;;38.72;24.95;;;;;;;32.43;nan;95519.09;5078675;28;20692;-67
2022/06/04 05:31:40;;;;;;;18.83;15.35;;;;;;;32.95;nan;95521.06;5078994;28;20293;-70
2022/06/04 05:34:07;;;;;;;13.18;10.65;;;;;;;33.13;nan;95511.84;5078379;28;20300;-67
2022/06/04 05:36:36;;;;;;;10.57;9.07;;;;;;;32.66;nan;95513.88;5078504;28;20649;-66
2022/06/04 05:39:05;;;;;;;16.08;9.68;;;;;;;32.30;nan;95503.91;5078879;28;20259;-67
2022/06/04 05:41:32;;;;;;;11.43;10.32;;;;;;;31.96;nan;95506.03;5078758;28;20201;-67
2022/06/04 05:43:59;;;;;;;11.40;9.10;;;;;;;32.26;nan;95518.41;5078743;28;20625;-68
2022/06/04 05:46:25;;;;;;;12.68;10.07;;;;;;;32.56;nan;95519.38;5078557;28;20736;-69
2022/06/04 05:48:53;;;;;;;20.63;10.15;;;;;;;32.53;nan;95524.16;5077773;28;20694;-67
2022/06/04 05:51:22;;;;;;;15.10;9.55;;;;;;;33.09;nan;95518.47;5078761;28;20209;-68
2022/06/04 05:53:52;;;;;;;18.33;10.05;;;;;;;33.93;nan;95521.72;5078362;28;20251;-68
2022/06/04 05:56:21;;;;;;;12.63;9.90;;;;;;;33.65;nan;95526.81;5078150;28;20212;-67
2022/06/04 05:58:50;;;;;;;13.98;9.10;;;;;;;33.51;nan;95519.72;5077741;28;20622;-67
2022/06/04 06:01:19;;;;;;;8.90;8.20;;;;;;;34.17;nan;95519.75;5078487;28;20206;-66
2022/06/04 06:03:46;;;;;;;10.43;9.10;;;;;;;33.94;nan;95512.78;5077446;28;20201;-70
2022/06/04 06:06:15;;;;;;;11.32;10.23;;;;;;;33.24;nan;95518.47;5078308;28;20720;-70
2022/06/04 06:08:42;;;;;;;10.27;9.43;;;;;;;32.62;nan;95520.47;5078101;28;20280;-70
2022/06/04 06:11:13;;;;;;;12.00;9.10;;;;;;;32.64;nan;95511.41;5078439;28;20193;-67
2022/06/04 06:13:41;;;;;;;11.52;8.90;;;;;;;32.22;nan;95514.47;5078057;28;20303;-67
2022/06/04 06:16:10;;;;;;;9.50;8.60;;;;;;;32.73;nan;95510.34;5077247;28;20699;-68
2022/06/04 06:18:37;;;;;;;11.65;9.85;;;;;;;32.18;nan;95517.59;5078170;28;20233;-69
2022/06/04 06:21:07;;;;;;;10.18;9.23;;;;;;;31.66;nan;95508.50;5077946;28;20687;-67
2022/06/04 06:23:34;;;;;;;11.05;9.85;;;;;;;30.89;nan;95502.03;5077942;28;20242;-67
2022/06/04 06:26:05;;;;;;;15.60;10.10;;;;;;;29.55;nan;95499.59;5076917;28;20234;-68
2022/06/04 06:28:37;;;;;;;19.55;9.98;;;;;;;28.87;nan;95500.31;5077244;28;20205;-66
2022/06/04 06:31:05;;;;;;;11.60;8.93;;;;;;;28.98;nan;95492.19;5077201;28;20233;-67
2022/06/04 06:33:32;;;;;;;15.82;10.07;;;;;;;29.50;nan;95499.22;5077857;28;20201;-67
2022/06/04 06:36:01;;;;;;;12.45;9.88;;;;;;;30.33;nan;95500.19;5077112;28;20213;-66
2022/06/04 06:38:28;;;;;;;11.07;9.60;;;;;;;31.25;nan;95496.41;5077242;28;20275;-67
2022/06/04 06:40:56;;;;;;;10.43;9.15;;;;;;;32.05;nan;95494.50;5076973;28;20197;-66
2022/06/04 06:43:31;;;;;;;9.88;8.80;;;;;;;32.06;nan;95488.25;5077431;28;20198;-68
2022/06/04 06:46:03;;;;;;;9.57;8.50;;;;;;;31.93;nan;95485.34;5076132;28;20192;-67
2022/06/04 06:48:31;;;;;;;22.00;9.75;;;;;;;32.31;nan;95479.25;5077355;28;20274;-66
2022/06/04 06:50:57;;;;;;;10.98;9.95;;;;;;;32.56;nan;95476.44;5076478;28;20189;-67
2022/06/04 06:53:25;;;;;;;10.80;9.73;;;;;;;32.27;nan;95472.69;5077193;28;21682;-67
2022/06/04 06:55:52;;;;;;;10.38;9.48;;;;;;;31.87;nan;95472.91;5076901;28;20201;-68
2022/06/04 06:58:19;;;;;;;15.00;8.88;;;;;;;31.51;nan;95473.34;5077464;28;20989;-69
2022/06/04 07:00:46;;;;;;;11.30;9.13;;;;;;;30.81;nan;95467.91;5077158;28;20217;-67
2022/06/04 07:03:14;;;;;;;14.60;9.23;;;;;;;30.53;nan;95469.22;5077476;28;20198;-70
2022/06/04 07:05:41;;;;;;;12.75;8.45;;;;;;;30.92;nan;95459.72;5076772;28;20209;-67
2022/06/04 07:08:08;;;;;;;13.18;8.80;;;;;;;31.33;nan;95451.75;5076752;28;20205;-69
2022/06/04 07:10:35;;;;;;;17.15;8.85;;;;;;;31.14;nan;95462.66;5076883;28;20210;-69
2022/06/04 07:13:01;;;;;;;17.48;10.45;;;;;;;30.34;nan;95454.63;5077366;28;20202;-68
2022/06/04 07:15:28;;;;;;;11.27;8.95;;;;;;;30.12;nan;95456.06;5076545;28;20688;-67
2022/06/04 07:17:56;;;;;;;11.23;9.38;;;;;;;29.88;nan;95463.84;5076325;28;20221;-67
2022/06/04 07:20:24;;;;;;;14.48;8.98;;;;;;;30.38;nan;95462.00;5077416;28;20552;-67
2022/06/04 07:22:52;;;;;;;10.68;8.52;;;;;;;30.39;nan;95457.59;5076949;28;20201;-71
2022/06/04 07:25:21;;;;;;;11.05;9.15;;;;;;;30.72;nan;95455.78;5076612;28;20244;-67
2022/06/04 07:27:48;;;;;;;16.30;8.98;;;;;;;30.94;nan;95447.22;5076639;28;20200;-70
2022/06/04 07:30:15;;;;;;;9.45;7.95;;;;;;;31.17;nan;95446.56;5076568;28;20201;-67
2022/06/04 07:32:42;;;;;;;14.68;8.30;;;;;;;31.46;nan;95437.09;5076930;28;20206;-67
2022/06/04 07:35:09;;;;;;;8.85;7.90;;;;;;;31.56;nan;95436.91;5076330;28;20213;-68
2022/06/04 07:37:37;;;;;;;10.30;7.53;;;;;;;31.52;nan;95432.97;5076229;28;20229;-66
2022/06/04 07:40:05;;;;;;;12.73;8.30;;;;;;;31.44;nan;95430.38;5076595;28;20204;-69
2022/06/04 07:42:32;;;;;;;9.35;8.13;;;;;;;31.33;nan;95425.50;5076896;28;20670;-66
2022/06/04 07:44:59;;;;;;;14.90;8.95;;;;;;;31.01;nan;95426.38;5076723;28;20209;-66
2022/06/04 07:47:26;;;;;;;19.95;9.85;;;;;;;30.89;nan;95423.31;5076334;28;20197;-65
2022/06/04 07:49:55;;;;;;;13.40;8.52;;;;;;;30.68;nan;95404.66;5076539;28;20197;-68
2022/06/04 07:52:22;;;;;;;9.15;8.35;;;;;;;30.72;nan;95416.44;5076438;28;20234;-67
2022/06/04 07:54:51;;;;;;;14.13;8.02;;;;;;;30.66;nan;95411.88;5076221;28;20212;-67
2022/06/04 07:57:18;;;;;;;11.30;7.93;;;;;;;30.21;nan;95428.88;5076511;28;20205;-67
2022/06/04 07:59:45;;;;;;;13.23;8.88;;;;;;;29.54;nan;95419.38;5075705;28;20231;-67
2022/06/04 08:02:12;;;;;;;9.35;8.52;;;;;;;29.34;nan;95392.59;5076552;28;20617;-66
2022/06/04 08:04:40;;;;;;;11.57;7.57;;;;;;;29.60;nan;95419.56;5075989;28;20202;-67
2022/06/04 08:07:07;;;;;;;8.82;7.60;;;;;;;29.27;nan;95417.75;5076006;28;20193;-66
2022/06/04 08:09:34;;;;;;;12.02;7.97;;;;;;;29.06;nan;95412.91;5075712;28;20692;-66
2022/06/04 08:12:02;;;;;;;8.43;7.50;;;;;;;29.17;nan;95412.66;5076240;28;20630;-66
2022/06/04 08:14:29;;;;;;;9.98;7.82;;;;;;;29.14;nan;95407.75;5075825;28;20205;-67
2022/06/04 08:16:58;;;;;;;13.43;8.20;;;;;;;29.03;nan;95408.81;5075568;28;20190;-67
2022/06/04 08:19:28;;;;;;;12.27;8.40;;;;;;;28.56;nan;95407.53;5075545;28;20721;-67
2022/06/04 08:21:55;;;;;;;11.35;8.93;;;;;;;28.60;nan;95393.16;5076162;28;20691;-68
2022/06/04 08:24:23;;;;;;;12.15;8.05;;;;;;;28.72;nan;95397.16;5075598;28;20237;-66
2022/06/04 08:26:58;;;;;;;11.38;6.90;;;;;;;28.71;nan;95396.34;5075104;28;20201;-67
2022/06/04 08:29:27;;;;;;;12.70;9.98;;;;;;;28.07;nan;95394.03;5075726;28;20220;-67
2022/06/04 08:31:54;;;;;;;12.25;9.27;;;;;;;28.10;nan;95385.91;5080450;28;20285;-68
2022/06/04 08:34:21;;;;;;;12.13;7.70;;;;;;;28.07;nan;95391.41;5079401;28;20205;-67
2022/06/04 08:36:48;;;;;;;11.23;8.45;;;;;;;27.86;nan;95383.06;5079458;28;20778;-67
2022/06/04 08:39:16;;;;;;;7.07;6.00;;;;;;;27.84;nan;95382.41;5079267;28;20233;-66
2022/06/04 08:42:02;;;;;;;9.10;6.47;;;;;;;27.47;nan;95380.66;5079805;28;20205;-69
2022/06/04 08:44:34;;;;;;;6.28;5.57;;;;;;;27.25;nan;95374.06;5079640;28;20579;-69
2022/06/04 08:47:12;;;;;;;8.15;5.25;;;;;;;27.27;nan;95376.53;5077674;28;20202;-66
2022/06/04 08:49:43;;;;;;;12.63;5.05;;;;;;;27.25;nan;95368.03;5077376;28;20669;-66
2022/06/04 08:52:14;;;;;;;11.95;5.53;;;;;;;27.18;nan;95374.81;5077424;28;20202;-68
2022/06/04 08:57:33;;;;;;;11.30;7.28;;;;;;;27.17;nan;95365.34;5077600;28;20209;-67
2022/06/04 09:00:09;;;;;;;8.75;5.95;;;;;;;27.38;nan;95373.75;5076831;28;20232;-66
2022/06/04 09:02:50;;;;;;;8.27;5.70;;;;;;;27.48;nan;95371.06;5078819;28;20209;-68
2022/06/04 09:05:24;;;;;;;6.28;5.78;;;;;;;27.62;nan;95374.03;5079294;28;21219;-66
2022/06/04 09:07:56;;;;;;;7.90;5.22;;;;;;;28.10;nan;95380.66;5079144;28;20201;-66
2022/06/04 09:10:27;;;;;;;5.32;4.70;;;;;;;28.54;nan;95380.69;5079196;28;20209;-67
2022/06/04 09:12:58;;;;;;;8.40;6.20;;;;;;;28.06;nan;95376.72;5079228;28;20196;-68
2022/06/04 09:15:31;;;;;;;9.95;6.38;;;;;;;28.11;nan;95375.31;5078368;28;20201;-67
2022/06/04 09:18:01;;;;;;;7.35;5.13;;;;;;;28.35;nan;95382.53;5078780;28;20205;-64
2022/06/04 09:20:35;;;;;;;5.63;5.07;;;;;;;28.16;nan;95367.00;5078639;28;20201;-66
2022/06/04 09:23:16;;;;;;;6.90;4.40;;;;;;;28.57;nan;95375.16;5078589;28;20235;-66
2022/06/04 09:25:47;;;;;;;6.78;5.05;;;;;;;28.88;nan;95376.38;5078353;28;20225;-67
2022/06/04 09:28:26;;;;;;;11.93;5.53;;;;;;;29.01;nan;95381.16;5078127;28;20209;-66
2022/06/04 09:31:04;;;;;;;9.38;6.20;;;;;;;29.14;nan;95371.09;5075251;28;20202;-69
2022/06/04 09:33:52;;;;;;;8.02;6.78;;;;;;;28.87;nan;95379.97;5078454;28;20198;-68
2022/06/04 09:36:24;;;;;;;5.85;4.32;;;;;;;28.97;nan;95380.66;5075704;28;20719;-65
2022/06/04 09:38:59;;;;;;;7.30;4.38;;;;;;;29.42;nan;95379.59;5077887;28;20237;-68
2022/06/04 09:41:28;;;;;;;6.38;4.57;;;;;;;29.85;nan;95382.94;5077351;28;20208;-68
2022/06/04 09:44:08;;;;;;;10.38;5.22;;;;;;;29.57;nan;95383.22;5078562;28;20660;-67
2022/06/04 09:46:37;;;;;;;9.75;6.32;;;;;;;29.81;nan;95382.44;5077305;28;20225;-67
2022/06/04 09:49:19;;;;;;;44.42;30.05;;;;;;;30.18;nan;95381.22;5077000;28;20198;-67
2022/06/04 09:51:47;;;;;;;9.00;7.60;;;;;;;29.88;nan;95377.38;5078271;28;20198;-66
2022/06/04 09:54:24;;;;;;;13.57;7.60;;;;;;;29.79;nan;95371.31;5078104;28;21207;-67
2022/06/04 09:56:54;;;;;;;9.38;6.85;;;;;;;29.93;nan;95377.72;5077883;28;20201;-66
2022/06/04 09:59:24;;;;;;;17.15;8.02;;;;;;;29.89;nan;95376.41;5077492;28;20265;-66
2022/06/04 10:01:58;;;;;;;13.25;9.07;;;;;;;29.85;nan;95375.09;5075094;28;20297;-69
2022/06/04 10:04:37;;;;;;;11.40;9.07;;;;;;;29.89;nan;95371.16;5078189;28;20192;-69
2022/06/04 10:07:10;;;;;;;12.38;7.90;;;;;;;30.04;nan;95359.06;5077473;28;20643;-67
2022/06/04 10:09:57;;;;;;;16.42;11.88;;;;;;;30.40;nan;95344.66;5076699;28;20206;-68
2022/06/04 10:15:20;;;;;;;15.93;12.80;;;;;;;30.48;nan;95356.09;5077054;28;20590;-66
2022/06/04 10:18:02;;;;;;;20.08;14.40;;;;;;;30.58;nan;95347.09;5077133;28;20201;-66
2022/06/04 10:20:29;;;;;;;24.13;14.30;;;;;;;30.67;nan;95346.13;5076476;28;20233;-68
2022/06/04 10:22:56;;;;;;;33.97;22.80;;;;;;;30.83;nan;95350.50;5077704;28;20681;-68
2022/06/04 10:25:29;;;;;;;17.38;14.32;;;;;;;30.91;nan;95345.22;5076712;28;20236;-69
2022/06/04 10:28:10;;;;;;;13.75;9.45;;;;;;;30.90;nan;95348.00;5076735;28;20194;-69
2022/06/04 10:30:48;;;;;;;7.85;7.03;;;;;;;30.86;nan;95336.22;5076465;28;20212;-68
2022/06/04 10:33:32;;;;;;;12.85;9.32;;;;;;;30.88;nan;95331.63;5076696;28;20247;-66
2022/06/04 10:36:10;;;;;;;15.40;8.40;;;;;;;31.01;nan;95332.69;5077206;28;20198;-69
2022/06/04 10:38:59;;;;;;;10.98;8.63;;;;;;;31.03;nan;95329.91;5076538;28;20229;-67
2022/06/04 10:41:37;;;;;;;42.47;31.58;;;;;;;31.19;nan;95327.22;5076156;28;20247;-68
2022/06/04 10:44:48;;;;;;;22.00;15.07;;;;;;;31.54;nan;95332.97;5074015;28;20229;-68
2022/06/04 10:47:22;;;;;;;18.17;12.80;;;;;;;31.73;nan;95332.53;4988274;28;20208;-68
2022/06/04 10:50:13;;;;;;;9.95;8.90;;;;;;;31.72;nan;95330.91;5067210;28;20651;-68
2022/06/04 10:52:43;;;;;;;8.25;7.13;;;;;;;31.89;nan;95331.63;5074305;28;20198;-67
2022/06/04 10:55:18;;;;;;;9.63;8.40;;;;;;;32.02;nan;95321.31;5073003;28;20205;-67
2022/06/04 10:57:53;;;;;;;9.35;6.25;;;;;;;31.83;nan;95314.75;5075835;28;20660;-72
2022/06/04 11:00:23;;;;;;;8.00;6.03;;;;;;;31.82;nan;95317.53;5075720;28;20734;-67
2022/06/04 11:02:56;;;;;;;11.20;6.13;;;;;;;31.35;nan;95310.59;5076547;28;20206;-67
2022/06/04 11:05:29;;;;;;;11.77;7.90;;;;;;;31.16;nan;95300.53;5075490;28;20665;-67
2022/06/04 11:08:03;;;;;;;12.98;7.70;;;;;;;31.27;nan;95302.75;5076113;28;20201;-68
2022/06/04 11:10:34;;;;;;;6.90;6.30;;;;;;;31.15;nan;95302.34;5076165;28;20204;-68
2022/06/04 11:13:08;;;;;;;10.52;8.10;;;;;;;31.32;nan;95288.13;5076006;28;20198;-67
2022/06/04 11:15:39;;;;;;;8.38;7.57;;;;;;;31.56;nan;95287.16;5075430;28;20205;-68
2022/06/04 11:18:14;;;;;;;8.60;6.95;;;;;;;31.65;nan;95278.22;5076317;28;20194;-67
2022/06/04 11:20:49;;;;;;;10.27;7.20;;;;;;;31.39;nan;95277.75;5074357;28;20617;-70
2022/06/04 11:23:28;;;;;;;10.40;7.38;;;;;;;31.33;nan;95283.69;5076647;28;20220;-66
2022/06/04 11:25:58;;;;;;;12.50;7.35;;;;;;;31.44;nan;95294.59;5074922;28;20225;-67
2022/06/04 11:28:27;;;;;;;12.55;7.20;;;;;;;31.58;nan;95293.03;5074717;28;20672;-69
2022/06/04 11:31:07;;;;;;;8.88;6.95;;;;;;;31.55;nan;95288.13;5075655;28;20208;-67
2022/06/04 11:33:45;;;;;;;8.23;7.55;;;;;;;31.23;nan;95290.94;5075713;28;20288;-67
2022/06/04 11:36:23;;;;;;;7.95;6.72;;;;;;;30.96;nan;95287.78;5075207;28;20201;-70
2022/06/04 11:39:08;;;;;;;13.38;8.05;;;;;;;30.57;nan;95289.56;5074217;28;20243;-67
2022/06/04 11:41:42;;;;;;;11.20;8.93;;;;;;;30.54;nan;95271.50;5076088;28;20209;-70
2022/06/04 11:44:43;;;;;;;12.38;8.80;;;;;;;30.63;nan;95281.03;5075805;28;21466;-67
2022/06/04 11:47:22;;;;;;;9.63;7.65;;;;;;;30.54;nan;95282.00;5075398;28;20188;-67
2022/06/04 11:49:59;;;;;;;15.23;7.90;;;;;;;30.43;nan;95283.19;5075597;28;20280;-66
2022/06/04 11:52:29;;;;;;;9.82;7.65;;;;;;;30.36;nan;95277.78;5074988;28;20201;-66
2022/06/04 11:55:16;;;;;;;9.02;7.43;;;;;;;30.39;nan;95276.63;5075806;28;20202;-66
2022/06/04 11:57:59;;;;;;;8.20;7.47;;;;;;;30.48;nan;95277.41;5075489;28;20206;-66
2022/06/04 12:00:31;;;;;;;8.35;7.65;;;;;;;30.43;nan;95281.38;5075993;28;20224;-66
2022/06/04 12:03:06;;;;;;;9.23;7.97;;;;;;;30.25;nan;95278.13;5075617;28;20650;-66
2022/06/04 12:05:42;;;;;;;13.93;7.72;;;;;;;30.02;nan;95266.69;5078087;28;20197;-66
2022/06/04 12:08:13;;;;;;;16.48;12.48;;;;;;;29.99;nan;95267.00;5079950;28;20201;-67
2022/06/04 12:10:55;;;;;;;17.67;14.20;;;;;;;30.12;nan;95277.84;5080038;28;20193;-66
2022/06/04 12:13:30;;;;;;;13.93;11.82;;;;;;;30.08;nan;95274.72;5079799;28;20258;-67